Time;durP1;ratioP1;P1;durP2;ratioP2;P2;SDS_P1;SDS_P2;PMS_P1;PMS_P2;Temp;Humidity;BMP_temperature;BMP_pressure;BME280_temperature;BME280_humidity;BME280_pressure;Samples;Min_cycle;Max_cycle;Signal;HPM_P1;HPM_P2
2021/11/17 02:28:03;;;;;;;21.42;12.38;;;;;;;6.17;100.00;100852.59;5030785;28;20052;-53
2021/11/17 02:30:49;;;;;;;21.48;11.95;;;;;;;6.16;100.00;100842.97;5025130;28;20042;-52
2021/11/17 02:33:33;;;;;;;19.02;11.20;;;;;;;6.16;100.00;100840.34;5032273;28;20046;-52
2021/11/17 02:36:15;;;;;;;19.65;11.52;;;;;;;6.15;100.00;100838.59;5031215;28;20047;-51
2021/11/17 02:39:18;;;;;;;23.77;12.27;;;;;;;6.11;100.00;100834.34;5028831;28;20052;-52
2021/11/17 02:42:04;;;;;;;21.10;11.90;;;;;;;6.13;100.00;100830.78;5030978;28;20064;-53
2021/11/17 02:45:01;;;;;;;20.15;11.85;;;;;;;6.14;100.00;100827.22;5011545;28;20053;-52
2021/11/17 02:47:42;;;;;;;17.88;10.25;;;;;;;6.12;100.00;100834.31;5027474;28;20283;-54
2021/11/17 02:50:15;;;;;;;19.15;10.95;;;;;;;6.09;100.00;100826.47;5029474;28;20053;-54
2021/11/17 02:52:54;;;;;;;21.88;11.77;;;;;;;6.09;100.00;100826.47;5031546;28;20418;-54
2021/11/17 02:55:50;;;;;;;22.35;12.75;;;;;;;6.13;100.00;100840.44;5030594;28;20055;-54
2021/11/17 02:58:48;;;;;;;20.77;12.02;;;;;;;6.12;100.00;100839.56;5010319;28;20037;-54
2021/11/17 03:01:33;;;;;;;22.80;12.60;;;;;;;6.11;100.00;100834.34;5039073;28;20091;-52
2021/11/17 03:04:22;;;;;;;21.02;11.27;;;;;;;6.11;100.00;100839.59;5035280;28;20060;-54
2021/11/17 03:07:04;;;;;;;17.75;11.15;;;;;;;6.16;100.00;100838.56;5010700;28;20048;-52
2021/11/17 03:09:42;;;;;;;18.83;11.73;;;;;;;6.12;100.00;100842.19;5023146;28;20128;-52
2021/11/17 03:12:09;;;;;;;18.33;11.48;;;;;;;6.11;100.00;100853.59;5029068;28;20041;-51
2021/11/17 03:14:56;;;;;;;20.60;12.02;;;;;;;6.09;100.00;100836.13;5029993;28;20517;-56
2021/11/17 03:17:31;;;;;;;23.17;12.13;;;;;;;6.10;100.00;100830.84;5027067;28;20042;-52
2021/11/17 03:19:58;;;;;;;22.77;11.60;;;;;;;6.10;100.00;100845.75;5026793;28;20053;-53
2021/11/17 03:22:52;;;;;;;22.55;12.35;;;;;;;6.08;100.00;100831.75;5027911;28;20069;-53
2021/11/17 03:25:21;;;;;;;20.40;11.57;;;;;;;6.07;100.00;100840.56;5031306;28;20049;-52
2021/11/17 03:28:09;;;;;;;22.42;11.75;;;;;;;6.03;100.00;100839.75;5027432;28;20148;-53
2021/11/17 03:30:38;;;;;;;19.30;11.77;;;;;;;6.03;100.00;100837.13;5023893;28;20041;-52
2021/11/17 03:33:05;;;;;;;21.92;11.93;;;;;;;6.09;100.00;100837.00;5023791;28;20499;-53
2021/11/17 03:35:52;;;;;;;22.67;12.23;;;;;;;6.05;100.00;100832.69;5032813;28;20042;-53
2021/11/17 03:38:28;;;;;;;25.40;12.80;;;;;;;6.06;100.00;100839.69;5024489;28;20053;-52
2021/11/17 03:41:25;;;;;;;18.55;11.70;;;;;;;6.08;100.00;100834.41;5025765;28;20041;-53
2021/11/17 03:44:17;;;;;;;18.35;11.57;;;;;;;6.09;100.00;100834.38;5026496;28;20045;-52
2021/11/17 03:46:58;;;;;;;20.27;11.02;;;;;;;6.04;100.00;100838.84;5027664;28;20045;-51
2021/11/17 03:49:35;;;;;;;19.20;11.45;;;;;;;6.05;100.00;100832.69;5011624;28;20045;-54
2021/11/17 03:52:02;;;;;;;21.95;11.93;;;;;;;6.04;100.00;100830.09;5029239;28;20041;-51
2021/11/17 03:54:34;;;;;;;21.95;11.57;;;;;;;6.03;100.00;100826.59;5027187;28;20041;-53
2021/11/17 03:57:34;;;;;;;20.20;11.18;;;;;;;6.03;100.00;100831.00;5027986;28;20041;-54
2021/11/17 04:00:36;;;;;;;21.17;12.30;;;;;;;6.01;100.00;100841.53;5024190;28;20061;-51
2021/11/17 04:03:23;;;;;;;21.08;11.63;;;;;;;5.99;100.00;100841.56;5030564;28;20045;-52
2021/11/17 04:06:10;;;;;;;19.60;11.38;;;;;;;6.02;100.00;100842.41;5025201;28;20691;-53
2021/11/17 04:08:54;;;;;;;19.88;10.88;;;;;;;6.01;100.00;100844.16;4996438;28;20045;-54
2021/11/17 04:11:36;;;;;;;18.13;10.65;;;;;;;5.99;100.00;100846.81;5010774;28;20050;-51
2021/11/17 04:14:31;;;;;;;17.27;10.15;;;;;;;5.99;100.00;100849.44;5011909;28;20041;-54
2021/11/17 04:17:39;;;;;;;19.48;10.68;;;;;;;6.00;100.00;100852.94;5010966;28;20056;-53
2021/11/17 04:20:33;;;;;;;17.38;8.95;;;;;;;6.06;99.02;100844.06;5022499;28;20047;-51
2021/11/17 04:23:48;;;;;;;15.45;8.95;;;;;;;6.04;98.29;100852.00;5025687;28;20056;-59
2021/11/17 04:26:33;;;;;;;15.63;7.78;;;;;;;6.00;97.86;100850.31;4989689;28;20041;-52
2021/11/17 04:29:33;;;;;;;11.05;6.80;;;;;;;5.99;97.38;100856.47;5029620;28;20053;-52
2021/11/17 04:32:10;;;;;;;8.00;5.28;;;;;;;5.99;95.76;100857.34;5024446;28;20045;-53
2021/11/17 04:34:59;;;;;;;7.40;5.30;;;;;;;5.96;94.71;100853.94;5014556;28;20056;-52
2021/11/17 04:37:31;;;;;;;7.00;4.25;;;;;;;5.99;93.41;100854.72;5033303;28;22436;-52
2021/11/17 04:40:05;;;;;;;8.20;4.40;;;;;;;5.93;93.32;100857.47;5029411;28;20059;-53
2021/11/17 04:42:38;;;;;;;7.82;3.95;;;;;;;6.06;91.43;100851.97;5026381;28;20041;-53
2021/11/17 04:45:29;;;;;;;5.72;3.30;;;;;;;6.04;91.40;100856.38;5030894;28;20049;-54
2021/11/17 04:48:08;;;;;;;6.57;4.15;;;;;;;6.03;91.45;100852.03;5029129;28;20044;-53
2021/11/17 04:50:41;;;;;;;5.05;3.58;;;;;;;6.02;91.69;100858.19;4990693;28;20054;-52
2021/11/17 04:53:27;;;;;;;7.80;4.10;;;;;;;6.06;91.16;100857.22;5023011;28;20053;-53
2021/11/17 04:56:06;;;;;;;5.85;3.83;;;;;;;6.15;90.20;100854.38;5022854;28;20148;-52
2021/11/17 04:59:01;;;;;;;6.18;3.90;;;;;;;6.10;89.52;100867.66;5030349;28;20055;-52
2021/11/17 05:01:36;;;;;;;6.13;3.95;;;;;;;6.09;90.55;100867.69;5031717;28;20045;-51
2021/11/17 05:04:18;;;;;;;6.18;3.92;;;;;;;6.06;90.51;100873.88;5030499;28;20045;-53
2021/11/17 05:07:16;;;;;;;8.23;4.38;;;;;;;6.03;90.67;100873.91;5026342;28;20045;-53
2021/11/17 05:10:05;;;;;;;7.28;4.25;;;;;;;6.03;90.62;100871.28;4980897;28;20049;-52
2021/11/17 05:12:41;;;;;;;7.25;4.30;;;;;;;5.99;91.05;100875.75;5029818;28;20506;-53
2021/11/17 05:15:10;;;;;;;7.05;4.60;;;;;;;5.97;91.27;100880.19;5027641;28;20052;-52
2021/11/17 05:17:55;;;;;;;8.23;4.40;;;;;;;5.96;91.40;100870.56;5025481;28;20072;-52
2021/11/17 05:20:29;;;;;;;6.38;4.38;;;;;;;5.96;91.62;100874.97;5026742;28;20052;-51
2021/11/17 05:23:06;;;;;;;7.05;4.65;;;;;;;5.97;91.87;100874.94;5025863;28;20060;-53
2021/11/17 05:25:42;;;;;;;7.32;4.53;;;;;;;6.01;91.96;100880.09;5025275;28;20038;-52
2021/11/17 05:28:20;;;;;;;7.43;4.35;;;;;;;6.03;91.92;100878.31;5030267;28;20063;-53
2021/11/17 05:31:02;;;;;;;8.40;5.40;;;;;;;6.01;91.65;100883.59;5008086;28;20148;-54
2021/11/17 05:33:28;;;;;;;7.50;4.82;;;;;;;6.04;91.77;100887.94;5033416;28;21281;-54
2021/11/17 05:36:26;;;;;;;8.00;5.32;;;;;;;6.01;91.19;100888.00;5024693;28;20045;-52
2021/11/17 05:39:25;;;;;;;9.80;5.35;;;;;;;5.98;91.86;100886.31;5013271;28;20327;-53
2021/11/17 05:42:04;;;;;;;11.70;5.43;;;;;;;5.98;92.18;100894.19;5026025;28;20045;-53
2021/11/17 05:45:04;;;;;;;8.38;5.38;;;;;;;5.95;92.24;100897.75;5015671;28;20099;-53
2021/11/17 05:47:53;;;;;;;9.55;5.53;;;;;;;5.81;92.01;100870.84;5031831;28;20052;-51
2021/11/17 05:50:50;;;;;;;7.55;5.13;;;;;;;5.99;92.18;100896.78;5028250;28;20155;-54
2021/11/17 05:53:37;;;;;;;8.70;5.50;;;;;;;5.99;91.93;100911.69;5038644;28;20064;-52
2021/11/17 05:56:28;;;;;;;8.55;4.97;;;;;;;5.90;92.01;100912.75;5036517;28;20045;-55
2021/11/17 05:59:19;;;;;;;10.60;5.93;;;;;;;5.88;92.45;100917.16;5030532;28;20052;-52
2021/11/17 06:02:30;;;;;;;8.27;4.82;;;;;;;5.86;93.15;100916.28;5031076;28;20041;-53
2021/11/17 06:04:57;;;;;;;8.90;5.20;;;;;;;5.85;93.71;100908.41;5018457;28;20534;-53
2021/11/17 06:07:23;;;;;;;8.95;5.30;;;;;;;5.84;94.00;100914.56;5029570;28;20055;-53
2021/11/17 06:09:50;;;;;;;8.75;5.53;;;;;;;5.89;93.84;100918.03;5030780;28;20050;-51
2021/11/17 06:12:17;;;;;;;8.75;5.20;;;;;;;5.87;93.78;100922.41;5027812;28;20042;-52
2021/11/17 06:14:47;;;;;;;6.85;4.63;;;;;;;5.85;94.07;100914.53;5032632;28;20460;-51
2021/11/17 06:17:18;;;;;;;8.27;5.00;;;;;;;5.87;94.26;100922.41;5032418;28;20048;-53
2021/11/17 06:19:48;;;;;;;8.05;4.80;;;;;;;5.85;93.92;100925.06;5032932;28;20364;-53
2021/11/17 06:22:18;;;;;;;;;;;;;;;5.84;94.53;100920.69;5031781;28;20041;-53
2021/11/17 06:24:48;;;;;;;6.28;4.45;;;;;;;5.85;94.03;100922.44;5031498;28;19927;-52
2021/11/17 06:27:20;;;;;;;8.23;4.90;;;;;;;5.83;94.25;100923.34;5031502;28;20087;-51
2021/11/17 06:29:52;;;;;;;7.95;4.30;;;;;;;5.81;94.59;100926.03;5026389;28;20554;-55
2021/11/17 06:32:18;;;;;;;7.30;4.68;;;;;;;5.71;95.02;100915.72;5037531;28;20052;-53
2021/11/17 06:34:53;;;;;;;7.82;4.70;;;;;;;5.76;95.62;100941.00;5034028;28;20042;-53
2021/11/17 06:37:24;;;;;;;8.88;4.80;;;;;;;5.79;95.18;100940.97;5029958;28;20052;-52
2021/11/17 06:39:54;;;;;;;8.32;4.53;;;;;;;5.84;95.05;100946.13;5028338;28;20062;-52
2021/11/17 06:42:31;;;;;;;10.63;4.93;;;;;;;5.85;95.36;100945.22;5031650;28;20524;-53
2021/11/17 06:44:59;;;;;;;8.55;4.40;;;;;;;5.87;94.35;100943.44;5036311;28;20041;-54
2021/11/17 06:47:25;;;;;;;7.82;4.63;;;;;;;5.83;95.11;100942.63;5032721;28;20525;-51
2021/11/17 06:49:53;;;;;;;6.43;4.22;;;;;;;5.81;94.75;100943.56;5028007;28;20410;-52
2021/11/17 06:52:23;;;;;;;7.38;4.22;;;;;;;5.78;95.06;100955.00;5026302;28;20140;-52
2021/11/17 06:54:50;;;;;;;7.60;5.18;;;;;;;5.82;95.51;100963.69;5030094;28;20521;-52
2021/11/17 06:57:20;;;;;;;8.68;4.70;;;;;;;5.82;95.38;100964.56;5029355;28;20586;-54
2021/11/17 06:59:47;;;;;;;8.80;5.10;;;;;;;5.88;95.59;100972.34;5028620;28;20083;-53
2021/11/17 07:02:15;;;;;;;7.03;4.53;;;;;;;6.01;95.17;100966.84;5031509;28;20048;-51
2021/11/17 07:04:42;;;;;;;8.60;5.20;;;;;;;6.04;94.82;100975.56;5031383;28;20041;-52
2021/11/17 07:07:13;;;;;;;8.85;4.63;;;;;;;6.17;93.77;100976.19;5030556;28;20146;-51
2021/11/17 07:09:39;;;;;;;;;;;;;;;6.17;92.60;100978.81;5032499;28;20045;-56
2021/11/17 07:12:07;;;;;;;7.90;5.10;;;;;;;6.16;93.53;100990.22;5031191;28;19927;-55
2021/11/17 07:14:33;;;;;;;8.23;5.53;;;;;;;6.15;94.30;100981.47;5033509;28;20132;-52
2021/11/17 07:17:00;;;;;;;9.90;5.63;;;;;;;6.09;95.15;100975.47;5035209;28;20560;-52
2021/11/17 07:19:27;;;;;;;9.88;5.10;;;;;;;5.99;93.36;100959.00;5029035;28;20192;-51
2021/11/17 07:21:56;;;;;;;9.75;5.72;;;;;;;6.14;93.10;100978.91;5027711;28;20051;-56
2021/11/17 07:24:25;;;;;;;10.63;5.47;;;;;;;6.09;93.56;100986.00;5032005;28;20053;-53
2021/11/17 07:26:52;;;;;;;8.95;5.57;;;;;;;6.04;93.77;100987.84;5032100;28;20410;-52
2021/11/17 07:29:19;;;;;;;8.85;5.55;;;;;;;6.00;93.52;100979.13;5028376;28;20045;-52
2021/11/17 07:31:45;;;;;;;9.70;5.78;;;;;;;5.98;93.68;100994.94;5028947;28;20507;-52
2021/11/17 07:34:12;;;;;;;10.73;5.57;;;;;;;5.96;94.55;100994.13;5032557;28;20044;-51
2021/11/17 07:36:41;;;;;;;10.55;6.00;;;;;;;5.95;95.18;100994.16;5032905;28;20056;-52
2021/11/17 07:39:14;;;;;;;9.43;5.80;;;;;;;6.04;95.01;101000.97;5033688;28;20045;-52
2021/11/17 07:41:47;;;;;;;9.32;5.28;;;;;;;5.99;94.54;101003.69;5040884;28;20052;-52
2021/11/17 07:44:16;;;;;;;6.97;4.97;;;;;;;5.95;94.83;101005.53;5034444;28;20144;-51
2021/11/17 07:46:47;;;;;;;8.80;5.22;;;;;;;5.90;94.98;101001.25;5026655;28;20156;-53
2021/11/17 07:49:16;;;;;;;6.50;4.32;;;;;;;5.90;95.85;101004.72;5032526;28;20045;-53
2021/11/17 07:51:43;;;;;;;9.15;4.53;;;;;;;5.87;95.46;101003.88;5026789;28;20057;-53
2021/11/17 07:54:10;;;;;;;7.35;4.80;;;;;;;5.89;95.79;101005.63;5029316;28;20072;-53
2021/11/17 07:56:40;;;;;;;8.35;4.30;;;;;;;5.91;95.73;101009.09;5034683;28;20045;-52
2021/11/17 07:59:09;;;;;;;7.43;4.80;;;;;;;5.90;95.26;101007.38;5030288;28;20053;-53
2021/11/17 08:01:36;;;;;;;8.85;4.18;;;;;;;5.85;95.16;100996.03;5028570;28;20049;-54
2021/11/17 08:04:05;;;;;;;6.95;3.80;;;;;;;5.92;94.94;101002.09;5026157;28;20140;-54
2021/11/17 08:06:33;;;;;;;6.32;3.85;;;;;;;5.97;95.17;101014.25;5033085;28;20040;-52
2021/11/17 08:08:59;;;;;;;6.63;3.50;;;;;;;5.97;95.10;101022.16;5037578;28;20055;-52
2021/11/17 08:11:26;;;;;;;7.68;3.42;;;;;;;5.96;95.37;101027.44;5031018;28;20093;-51
2021/11/17 08:13:52;;;;;;;7.63;3.58;;;;;;;5.98;94.26;101023.84;5030181;28;20048;-52
2021/11/17 08:16:19;;;;;;;5.78;2.88;;;;;;;5.99;93.63;101025.59;5029177;28;20057;-53
2021/11/17 08:18:46;;;;;;;7.32;3.30;;;;;;;6.01;93.71;101032.59;5029687;28;20056;-52
2021/11/17 08:21:14;;;;;;;6.25;3.60;;;;;;;5.91;94.54;101034.53;5027414;28;20047;-53
2021/11/17 08:23:41;;;;;;;4.38;2.97;;;;;;;5.88;94.81;101034.53;5035831;28;20049;-51
2021/11/17 08:26:09;;;;;;;4.45;3.20;;;;;;;5.79;95.34;101019.81;5032227;28;20053;-52
2021/11/17 08:28:35;;;;;;;6.40;3.45;;;;;;;5.86;95.52;101031.06;5030152;28;20053;-53
2021/11/17 08:31:02;;;;;;;6.22;4.53;;;;;;;5.86;95.62;101031.94;5022653;28;20087;-53
2021/11/17 08:33:29;;;;;;;7.10;3.85;;;;;;;5.85;95.61;101031.94;5032308;28;20113;-51
2021/11/17 08:35:57;;;;;;;5.53;3.10;;;;;;;5.86;95.53;101031.94;5031987;28;20121;-53
2021/11/17 08:38:24;;;;;;;5.18;3.30;;;;;;;5.90;95.49;101032.78;5032595;28;20499;-53
2021/11/17 08:40:55;;;;;;;5.53;2.97;;;;;;;5.95;94.49;101021.31;5026143;28;20056;-52
2021/11/17 08:43:22;;;;;;;3.97;2.67;;;;;;;6.11;94.01;101015.75;5020919;28;20045;-52
2021/11/17 08:45:50;;;;;;;4.95;2.63;;;;;;;6.21;92.18;101009.41;5029614;28;20036;-53
2021/11/17 08:48:19;;;;;;;5.10;2.63;;;;;;;6.29;90.29;101007.53;5031802;28;20041;-54
2021/11/17 08:50:47;;;;;;;2.45;2.10;;;;;;;6.28;89.22;100992.63;5028444;28;20060;-53
2021/11/17 08:53:17;;;;;;;3.33;2.38;;;;;;;6.46;89.26;101013.28;5031596;28;20414;-52
2021/11/17 08:55:44;;;;;;;6.07;2.55;;;;;;;6.59;88.57;101014.78;5031379;28;20052;-54
2021/11/17 08:58:16;;;;;;;2.90;2.20;;;;;;;6.68;86.59;101011.09;5029229;28;20577;-54
2021/11/17 09:00:44;;;;;;;5.47;2.55;;;;;;;6.73;85.52;101008.38;5023820;28;20056;-51
2021/11/17 09:03:11;;;;;;;5.07;2.60;;;;;;;6.83;84.85;101023.06;5024959;28;20061;-52
2021/11/17 09:06:02;;;;;;;4.55;2.60;;;;;;;6.90;83.55;101014.13;5024694;28;20055;-51
2021/11/17 09:08:30;;;;;;;;;;;;;;;6.87;83.75;101017.69;5026711;28;20060;-50
2021/11/17 09:11:01;;;;;;;4.95;3.10;;;;;;;6.78;84.34;101011.75;5024327;28;19925;-53
2021/11/17 09:13:27;;;;;;;4.82;2.70;;;;;;;6.71;84.50;101018.06;5008069;28;20419;-53
2021/11/17 09:15:56;;;;;;;5.10;3.10;;;;;;;6.75;85.10;101025.00;5006913;28;20053;-52
2021/11/17 09:18:26;;;;;;;6.35;2.97;;;;;;;6.79;84.84;101024.00;5000248;28;20561;-52
2021/11/17 09:20:54;;;;;;;4.38;3.13;;;;;;;6.74;85.02;101020.63;5001345;28;20075;-52
2021/11/17 09:23:23;;;;;;;4.55;3.08;;;;;;;6.81;84.62;101022.22;5000302;28;20055;-51
2021/11/17 09:25:50;;;;;;;4.78;2.47;;;;;;;6.84;84.27;101030.06;5002451;28;20057;-51
2021/11/17 09:28:19;;;;;;;4.32;2.47;;;;;;;6.88;84.76;101037.88;4998439;28;20045;-53
2021/11/17 09:30:46;;;;;;;4.78;2.90;;;;;;;6.88;83.84;101040.50;4992876;28;20049;-53
2021/11/17 09:33:15;;;;;;;3.92;3.25;;;;;;;6.84;84.51;101043.22;5013177;28;20053;-53
2021/11/17 09:35:43;;;;;;;5.70;3.20;;;;;;;6.85;84.68;101060.75;5028485;28;20072;-53
2021/11/17 09:38:11;;;;;;;5.25;3.50;;;;;;;6.88;84.73;101055.41;5022681;28;20406;-52
2021/11/17 09:40:45;;;;;;;6.07;3.42;;;;;;;6.90;85.51;101057.13;5029120;28;20686;-54
2021/11/17 09:43:15;;;;;;;4.90;3.28;;;;;;;6.95;84.80;101051.75;5027015;28;20530;-52
2021/11/17 09:45:44;;;;;;;6.75;3.08;;;;;;;6.99;85.09;101058.69;5033337;28;20052;-58
2021/11/17 09:48:13;;;;;;;4.30;1.83;;;;;;;7.13;81.91;101064.50;5014932;28;20050;-52
2021/11/17 09:50:41;;;;;;;2.47;1.50;;;;;;;7.13;80.74;101066.28;5022849;28;20209;-53
2021/11/17 09:53:13;;;;;;;2.65;1.80;;;;;;;7.08;80.87;101055.00;5031929;28;20058;-53
2021/11/17 09:55:51;;;;;;;3.72;1.77;;;;;;;7.05;80.12;101058.56;5026544;28;20052;-52
2021/11/17 09:58:20;;;;;;;3.47;2.35;;;;;;;7.07;79.86;101054.13;5025098;28;20561;-53
2021/11/17 10:01:07;;;;;;;2.80;2.00;;;;;;;7.08;80.13;101066.41;5028717;28;20071;-53
2021/11/17 10:03:37;;;;;;;4.32;2.08;;;;;;;7.08;79.68;101063.75;5031836;28;20037;-53
2021/11/17 10:06:46;;;;;;;3.47;2.10;;;;;;;7.09;80.05;101060.19;5029495;28;20806;-54
2021/11/17 10:12:49;;;;;;;4.35;2.70;;;;;;;7.27;79.44;101056.28;5017049;28;20053;-52
2021/11/17 10:15:04;;;;;;;5.78;3.00;;;;;;;7.33;78.91;101071.97;5024027;28;20420;-54
2021/11/17 10:17:52;;;;;;;4.72;3.10;;;;;;;7.35;78.25;101068.41;5032593;28;20037;-54
2021/11/17 10:20:31;;;;;;;6.28;3.05;;;;;;;7.42;78.60;101063.84;5020689;28;20060;-53
2021/11/17 10:23:06;;;;;;;5.50;3.67;;;;;;;7.48;78.15;101073.38;5000714;28;20053;-52
2021/11/17 10:25:45;;;;;;;5.07;3.72;;;;;;;7.47;78.31;101066.38;5023767;28;20052;-53
2021/11/17 10:28:13;;;;;;;5.53;3.70;;;;;;;7.38;77.61;101052.53;5023140;28;20904;-54
2021/11/17 10:30:54;;;;;;;5.55;3.42;;;;;;;7.50;76.23;101068.94;5026078;28;20041;-53
2021/11/17 10:33:47;;;;;;;7.97;4.18;;;;;;;7.50;75.83;101067.19;5028942;28;20045;-52
2021/11/17 10:36:25;;;;;;;4.97;3.53;;;;;;;7.49;76.61;101072.47;5022833;28;20049;-53
2021/11/17 10:39:02;;;;;;;5.80;3.92;;;;;;;7.52;76.57;101075.91;5028353;28;20448;-54
2021/11/17 10:41:31;;;;;;;5.80;3.42;;;;;;;7.48;76.87;101066.34;5026720;28;20045;-53
2021/11/17 10:44:09;;;;;;;4.72;3.47;;;;;;;7.54;76.23;101066.22;5029869;28;20136;-53
2021/11/17 10:46:48;;;;;;;7.30;4.15;;;;;;;7.51;75.85;101062.78;5030378;28;20045;-53
2021/11/17 10:49:19;;;;;;;6.88;3.65;;;;;;;7.57;76.47;101055.56;5030033;28;20048;-52
2021/11/17 10:51:58;;;;;;;7.30;3.75;;;;;;;7.63;74.97;101051.94;5030805;28;20063;-53
2021/11/17 10:54:28;;;;;;;7.78;4.40;;;;;;;7.72;74.51;101054.31;5024941;28;20049;-53
2021/11/17 10:57:08;;;;;;;5.85;3.60;;;;;;;7.79;74.72;101066.47;5027217;28;20474;-53
2021/11/17 10:59:36;;;;;;;8.48;5.00;;;;;;;7.90;73.92;101060.91;5030778;28;20067;-51
2021/11/17 11:02:06;;;;;;;7.88;4.75;;;;;;;7.94;73.19;101063.44;5033489;28;20042;-55
2021/11/17 11:04:40;;;;;;;10.02;5.47;;;;;;;7.96;73.26;101064.28;5027724;28;20049;-52
2021/11/17 11:07:24;;;;;;;6.70;5.00;;;;;;;8.01;73.55;101064.16;5031061;28;20072;-53
2021/11/17 11:10:00;;;;;;;7.00;4.70;;;;;;;7.99;72.31;101065.97;5008435;28;20084;-52
2021/11/17 11:12:29;;;;;;;8.13;5.10;;;;;;;7.96;73.14;101056.38;5012270;28;20549;-53
2021/11/17 11:15:26;;;;;;;9.05;5.55;;;;;;;7.96;72.83;101051.09;5011877;28;20045;-53
2021/11/17 11:18:04;;;;;;;8.35;5.10;;;;;;;7.86;73.30;101054.00;5011801;28;20046;-54
2021/11/17 11:20:50;;;;;;;7.13;4.60;;;;;;;7.82;73.69;101047.94;5026631;28;20061;-52
2021/11/17 11:23:27;;;;;;;7.32;3.85;;;;;;;7.73;73.10;101049.03;5027054;28;20040;-53
2021/11/17 11:26:29;;;;;;;6.90;4.80;;;;;;;7.69;73.73;101038.63;5026173;28;20049;-52
2021/11/17 11:29:01;;;;;;;7.60;5.63;;;;;;;7.66;74.80;101028.13;4914672;29;20048;-54
2021/11/17 11:31:38;;;;;;;12.00;9.52;;;;;;;7.77;74.66;101036.63;5007432;28;20052;-51
2021/11/17 11:34:04;;;;;;;9.48;4.85;;;;;;;7.91;73.00;101033.63;5020914;28;20063;-53
2021/11/17 11:36:39;;;;;;;6.88;4.55;;;;;;;7.98;73.85;101041.38;5032121;28;20055;-51
2021/11/17 11:39:06;;;;;;;9.95;5.05;;;;;;;8.07;73.50;101049.03;5037856;28;20418;-53
2021/11/17 11:41:46;;;;;;;8.55;5.38;;;;;;;8.13;73.62;101039.22;5024398;28;20041;-51
2021/11/17 11:44:16;;;;;;;7.40;4.53;;;;;;;8.22;73.19;101055.66;5018053;28;20049;-51
2021/11/17 11:46:57;;;;;;;7.15;5.10;;;;;;;8.26;72.76;101061.75;5020251;28;20049;-51
2021/11/17 11:49:41;;;;;;;7.13;4.45;;;;;;;8.25;73.42;101057.38;5021679;28;20041;-52
2021/11/17 11:52:22;;;;;;;6.88;4.18;;;;;;;8.19;72.91;101066.28;5023367;28;20075;-52
2021/11/17 11:54:51;;;;;;;6.38;4.40;;;;;;;8.03;73.48;101081.66;5023091;28;20053;-52
2021/11/17 11:57:24;;;;;;;7.40;4.70;;;;;;;7.97;74.09;101076.56;5033324;28;20057;-51
2021/11/17 12:00:12;;;;;;;6.75;4.55;;;;;;;7.88;74.40;101086.44;5026772;28;20045;-52
2021/11/17 12:02:45;;;;;;;6.53;4.70;;;;;;;7.89;74.52;101078.50;5030328;28;20052;-53
2021/11/17 12:05:30;;;;;;;7.57;4.72;;;;;;;7.92;75.39;101083.72;5022080;28;20095;-53
2021/11/17 12:08:03;;;;;;;7.15;4.65;;;;;;;7.93;76.16;101082.81;5038001;28;20072;-51
2021/11/17 12:10:30;;;;;;;6.00;4.32;;;;;;;7.89;76.24;101082.91;5001959;28;20042;-52
2021/11/17 12:13:16;;;;;;;9.50;5.63;;;;;;;7.81;75.87;101083.13;5001272;28;20058;-52
2021/11/17 12:16:14;;;;;;;8.52;5.43;;;;;;;7.62;76.92;101073.91;5016017;28;20048;-54
2021/11/17 12:18:53;;;;;;;9.95;5.28;;;;;;;7.56;77.48;101069.66;5023019;28;20049;-54
2021/11/17 12:21:42;;;;;;;8.52;5.43;;;;;;;7.56;77.49;101069.66;5023320;28;20055;-54
2021/11/17 12:24:24;;;;;;;10.60;5.78;;;;;;;7.62;77.69;101072.16;4991862;28;20670;-52
2021/11/17 12:27:13;;;;;;;9.48;5.47;;;;;;;7.77;77.33;101065.63;4997933;28;20050;-51
2021/11/17 12:29:48;;;;;;;8.57;4.97;;;;;;;7.85;76.88;101068.97;4998918;28;20050;-53
2021/11/17 12:32:19;;;;;;;8.43;5.28;;;;;;;7.89;76.40;101065.31;5005638;28;20049;-52
2021/11/17 12:35:19;;;;;;;8.52;5.25;;;;;;;7.93;76.41;101064.34;5000354;28;20049;-51
2021/11/17 12:38:04;;;;;;;9.95;5.68;;;;;;;7.95;77.05;101062.53;5005845;28;20411;-52
2021/11/17 12:40:55;;;;;;;9.60;5.95;;;;;;;7.86;77.10;101073.34;5010947;28;20048;-52
2021/11/17 12:43:37;;;;;;;8.25;4.93;;;;;;;7.87;76.72;101076.84;5010009;28;20049;-53
2021/11/17 12:46:10;;;;;;;6.68;5.00;;;;;;;7.81;77.30;101077.84;5007707;28;20483;-53
2021/11/17 12:48:50;;;;;;;9.20;5.85;;;;;;;7.79;77.78;101069.09;5017903;28;20081;-52
2021/11/17 12:51:22;;;;;;;9.90;5.45;;;;;;;7.79;76.87;101070.88;5016160;28;20254;-54
2021/11/17 12:53:55;;;;;;;10.13;5.38;;;;;;;7.75;76.92;101065.66;5009360;28;20045;-51
2021/11/17 12:56:25;;;;;;;6.32;4.38;;;;;;;7.79;77.10;101070.88;5002374;28;20055;-52
2021/11/17 12:58:58;;;;;;;6.55;4.53;;;;;;;7.77;77.27;101064.78;5005799;28;20058;-54
2021/11/17 13:01:28;;;;;;;9.52;4.78;;;;;;;7.74;77.59;101069.22;5019308;28;21998;-52
2021/11/17 13:04:12;;;;;;;8.25;5.47;;;;;;;7.82;77.37;101071.66;5024235;28;20056;-53
2021/11/17 13:06:43;;;;;;;7.75;4.60;;;;;;;7.90;76.65;101068.81;5016519;28;20039;-52
2021/11/17 13:09:12;;;;;;;7.38;4.78;;;;;;;7.96;75.87;101066.91;5022421;28;20045;-52
2021/11/17 13:11:53;;;;;;;6.88;4.72;;;;;;;7.93;76.22;101077.53;5031371;28;20045;-53
2021/11/17 13:14:28;;;;;;;8.88;4.80;;;;;;;7.93;76.52;101080.16;5025692;28;20140;-52
2021/11/17 13:17:08;;;;;;;8.10;5.28;;;;;;;7.88;76.52;101082.03;5013023;28;20540;-52
2021/11/17 13:19:42;;;;;;;11.48;5.07;;;;;;;7.84;77.18;101076.91;5013144;28;20045;-53
2021/11/17 13:22:39;;;;;;;7.85;4.78;;;;;;;7.77;77.84;101064.78;5012579;28;20050;-53
2021/11/17 13:25:30;;;;;;;8.73;5.10;;;;;;;7.75;77.79;101059.53;5023494;28;20040;-52
2021/11/17 13:28:02;;;;;;;8.30;4.43;;;;;;;7.72;78.50;101070.16;5027889;28;20049;-55
2021/11/17 13:30:46;;;;;;;7.20;4.80;;;;;;;7.71;78.88;101065.81;5025344;28;20048;-52
2021/11/17 13:33:21;;;;;;;7.78;4.95;;;;;;;7.77;78.04;101062.13;5029008;28;20049;-52
2021/11/17 13:36:04;;;;;;;7.50;4.70;;;;;;;7.77;78.45;101070.03;5024059;28;20498;-52
2021/11/17 13:38:31;;;;;;;7.97;4.57;;;;;;;7.84;77.94;101069.88;5025411;28;20043;-53
2021/11/17 13:41:01;;;;;;;7.05;4.30;;;;;;;7.79;78.51;101074.38;5036883;28;20053;-51
2021/11/17 13:43:28;;;;;;;6.18;4.10;;;;;;;7.78;78.87;101077.91;5029731;28;20041;-52
2021/11/17 13:45:57;;;;;;;6.78;4.07;;;;;;;7.77;79.02;101078.81;5028475;28;20079;-53
2021/11/17 13:48:27;;;;;;;8.35;4.25;;;;;;;7.80;78.63;101086.66;5035512;28;20127;-54
2021/11/17 13:50:55;;;;;;;6.90;4.28;;;;;;;7.77;78.74;101081.44;5030856;28;20985;-54
2021/11/17 13:53:23;;;;;;;5.88;4.00;;;;;;;7.79;79.03;101068.22;5030510;28;20045;-52
2021/11/17 13:56:21;;;;;;;8.38;4.57;;;;;;;7.81;78.95;101064.66;5019078;28;20057;-52
2021/11/17 13:58:48;;;;;;;5.93;3.95;;;;;;;7.80;79.72;101075.25;5026652;28;20053;-52
2021/11/17 14:01:16;;;;;;;6.78;4.00;;;;;;;7.82;79.62;101078.72;5029237;28;20049;-54
2021/11/17 14:03:43;;;;;;;8.50;4.28;;;;;;;7.86;79.58;101070.69;5023589;28;20754;-51
2021/11/17 14:06:14;;;;;;;6.13;4.10;;;;;;;7.89;79.08;101073.22;5014092;28;20045;-54
2021/11/17 14:08:41;;;;;;;6.40;3.88;;;;;;;7.88;79.33;101071.50;5018065;28;20045;-53
2021/11/17 14:11:08;;;;;;;6.60;3.90;;;;;;;7.90;79.31;101068.81;5026347;28;20053;-52
2021/11/17 14:13:35;;;;;;;8.38;4.03;;;;;;;7.97;79.41;101068.66;5023025;28;20042;-51
2021/11/17 14:16:02;;;;;;;8.13;4.25;;;;;;;7.99;79.67;101071.25;5018159;28;20071;-54
2021/11/17 14:18:29;;;;;;;5.72;3.75;;;;;;;8.03;78.72;101075.50;5011782;28;20552;-52
2021/11/17 14:20:58;;;;;;;12.57;4.45;;;;;;;7.99;79.06;101081.78;5030815;28;20049;-51
2021/11/17 14:23:25;;;;;;;5.88;3.60;;;;;;;7.94;79.22;101079.25;5038257;28;20081;-52
2021/11/17 14:25:51;;;;;;;6.38;3.55;;;;;;;7.94;79.68;101081.91;5025479;28;20068;-54
2021/11/17 14:28:28;;;;;;;6.88;3.53;;;;;;;7.94;80.03;101079.25;5027741;28;20052;-52
2021/11/17 14:31:07;;;;;;;6.47;3.63;;;;;;;7.96;80.29;101090.66;5037026;28;20450;-54
2021/11/17 14:33:34;;;;;;;5.45;3.20;;;;;;;7.93;80.60;101079.31;5035355;28;20053;-53
2021/11/17 14:36:04;;;;;;;6.63;3.60;;;;;;;7.89;81.04;101077.63;5030205;28;20045;-53
2021/11/17 14:38:32;;;;;;;6.85;3.30;;;;;;;7.84;81.79;101080.41;5030811;28;20609;-53
2021/11/17 14:41:00;;;;;;;5.55;3.40;;;;;;;7.77;82.12;101078.81;5034748;28;20483;-51